NSZ46E EKCH-EKYT
Flight info
| Callsign | NSZ46E |
|---|---|
| Flight time | 0h 27m |
| Altitude | 18000 |
| Route | GOLGA T506 LAPMA L621 AAL |
| Aircraft | B38M/M-SDE1FGHILORVWXY/HB1 |
Departure
| Time | 2026-04-22 18:48 |
|---|---|
| Airport | Copenhagen Kastrup Airport (EKCH) |
Arrival
| Time | 2026-04-22 19:16 |
|---|---|
| Airport | Aalborg Airport (EKYT) |
| Time | Latitude | Longitude | Altitude | Speed | Heading |
|---|---|---|---|---|---|
| 2026-04-22 18:19 | 55.62712 | 12.65323 | 19 ft | 0 kts | 17° |
| 2026-04-22 18:35 | 55.62708 | 12.65321 | 19 ft | 2 kts | 16° |
| 2026-04-22 18:35 | 55.62690 | 12.65314 | 19 ft | 3 kts | 7° |
| 2026-04-22 18:36 | 55.62670 | 12.65312 | 19 ft | 3 kts | 357° |
| 2026-04-22 18:36 | 55.62650 | 12.65315 | 19 ft | 3 kts | 351° |
| 2026-04-22 18:36 | 55.62630 | 12.65320 | 19 ft | 3 kts | 355° |
| 2026-04-22 18:36 | 55.62610 | 12.65321 | 19 ft | 3 kts | 360° |
| 2026-04-22 18:37 | 55.62590 | 12.65322 | 19 ft | 3 kts | 359° |
| 2026-04-22 18:37 | 55.62575 | 12.65322 | 19 ft | 1 kts | 359° |
| 2026-04-22 18:37 | 55.62574 | 12.65322 | 19 ft | 2 kts | 359° |
| 2026-04-22 18:41 | 55.62581 | 12.65322 | 21 ft | 2 kts | 358° |
| 2026-04-22 18:41 | 55.62601 | 12.65320 | 20 ft | 4 kts | 355° |
| 2026-04-22 18:41 | 55.62632 | 12.65308 | 19 ft | 5 kts | 332° |
| 2026-04-22 18:41 | 55.62649 | 12.65248 | 19 ft | 6 kts | 259° |
| 2026-04-22 18:42 | 55.62616 | 12.65199 | 22 ft | 7 kts | 191° |
| 2026-04-22 18:42 | 55.62566 | 12.65196 | 19 ft | 8 kts | 180° |
| 2026-04-22 18:42 | 55.62507 | 12.65199 | 19 ft | 10 kts | 178° |
| 2026-04-22 18:42 | 55.62434 | 12.65203 | 19 ft | 11 kts | 178° |
| 2026-04-22 18:43 | 55.62351 | 12.65208 | 19 ft | 12 kts | 178° |
| 2026-04-22 18:43 | 55.62266 | 12.65201 | 19 ft | 11 kts | 184° |
| 2026-04-22 18:43 | 55.62190 | 12.65160 | 21 ft | 12 kts | 212° |
| 2026-04-22 18:43 | 55.62113 | 12.65073 | 21 ft | 14 kts | 213° |
| 2026-04-22 18:44 | 55.62028 | 12.64975 | 20 ft | 15 kts | 212° |
| 2026-04-22 18:44 | 55.61932 | 12.64866 | 19 ft | 18 kts | 212° |
| 2026-04-22 18:44 | 55.61826 | 12.64744 | 20 ft | 19 kts | 212° |
| 2026-04-22 18:44 | 55.61714 | 12.64613 | 19 ft | 20 kts | 213° |
| 2026-04-22 18:45 | 55.61593 | 12.64473 | 21 ft | 21 kts | 213° |
| 2026-04-22 18:45 | 55.61464 | 12.64326 | 21 ft | 23 kts | 213° |
| 2026-04-22 18:45 | 55.61327 | 12.64168 | 19 ft | 24 kts | 213° |
| 2026-04-22 18:45 | 55.61183 | 12.64003 | 19 ft | 25 kts | 213° |
| 2026-04-22 18:46 | 55.61035 | 12.63833 | 19 ft | 25 kts | 213° |
| 2026-04-22 18:46 | 55.60887 | 12.63664 | 21 ft | 26 kts | 213° |
| 2026-04-22 18:46 | 55.60740 | 12.63495 | 19 ft | 25 kts | 213° |
| 2026-04-22 18:46 | 55.60634 | 12.63361 | 19 ft | 19 kts | 217° |
| 2026-04-22 18:47 | 55.60545 | 12.63230 | 19 ft | 11 kts | 211° |
| 2026-04-22 18:47 | 55.60474 | 12.63247 | 20 ft | 11 kts | 136° |
| 2026-04-22 18:47 | 55.60421 | 12.63362 | 20 ft | 13 kts | 130° |
| 2026-04-22 18:47 | 55.60429 | 12.63487 | 20 ft | 13 kts | 43° |
| 2026-04-22 18:48 | 55.60529 | 12.63645 | 20 ft | 46 kts | 41° |
| 2026-04-22 18:48 | 55.60982 | 12.64345 | 19 ft | 127 kts | 41° |
| 2026-04-22 18:48 | 55.61771 | 12.65602 | 361 ft | 158 kts | 44° |
| 2026-04-22 18:48 | 55.62590 | 12.66913 | 1269 ft | 164 kts | 43° |
| 2026-04-22 18:49 | 55.63494 | 12.68297 | 1979 ft | 180 kts | 43° |
| 2026-04-22 18:49 | 55.64485 | 12.69809 | 2524 ft | 197 kts | 45° |
| 2026-04-22 18:49 | 55.65697 | 12.71214 | 3013 ft | 224 kts | 25° |
| 2026-04-22 18:49 | 55.67324 | 12.71688 | 3514 ft | 252 kts | 0° |
| 2026-04-22 18:50 | 55.69008 | 12.70904 | 4309 ft | 256 kts | 336° |
| 2026-04-22 18:50 | 55.70695 | 12.69797 | 5078 ft | 261 kts | 341° |
| 2026-04-22 18:50 | 55.72186 | 12.67970 | 5938 ft | 263 kts | 308° |
| 2026-04-22 18:50 | 55.73410 | 12.65534 | 6731 ft | 266 kts | 312° |
| 2026-04-22 18:51 | 55.74719 | 12.63147 | 7474 ft | 270 kts | 313° |
| 2026-04-22 18:51 | 55.76068 | 12.60784 | 8219 ft | 277 kts | 314° |
| 2026-04-22 18:51 | 55.77455 | 12.58387 | 9137 ft | 278 kts | 314° |
| 2026-04-22 18:51 | 55.78882 | 12.55940 | 9781 ft | 293 kts | 314° |
| 2026-04-22 18:52 | 55.80395 | 12.53365 | 10456 ft | 304 kts | 314° |
| 2026-04-22 18:52 | 55.81964 | 12.50699 | 11041 ft | 322 kts | 314° |
| 2026-04-22 18:52 | 55.83634 | 12.47868 | 11494 ft | 339 kts | 314° |
| 2026-04-22 18:52 | 55.85360 | 12.44930 | 12058 ft | 350 kts | 314° |
| 2026-04-22 18:53 | 55.87122 | 12.41941 | 12880 ft | 344 kts | 314° |
| 2026-04-22 18:53 | 55.88872 | 12.38956 | 13502 ft | 353 kts | 313° |
| 2026-04-22 18:53 | 55.90654 | 12.35917 | 14226 ft | 355 kts | 313° |
| 2026-04-22 18:53 | 55.92431 | 12.32876 | 14921 ft | 360 kts | 313° |
| 2026-04-22 18:54 | 55.94244 | 12.29775 | 15678 ft | 362 kts | 312° |
| 2026-04-22 18:54 | 55.96075 | 12.26639 | 16360 ft | 366 kts | 312° |
| 2026-04-22 18:54 | 55.97916 | 12.23479 | 17023 ft | 368 kts | 312° |
| 2026-04-22 18:54 | 55.99793 | 12.20252 | 17641 ft | 371 kts | 311° |
| 2026-04-22 18:55 | 56.01668 | 12.17027 | 18086 ft | 377 kts | 311° |
| 2026-04-22 18:55 | 56.03570 | 12.13750 | 18141 ft | 382 kts | 311° |
| 2026-04-22 18:55 | 56.05488 | 12.10448 | 18151 ft | 382 kts | 311° |
| 2026-04-22 18:55 | 56.07408 | 12.07126 | 18157 ft | 383 kts | 311° |
| 2026-04-22 18:56 | 56.09320 | 12.03810 | 18155 ft | 382 kts | 311° |
| 2026-04-22 18:56 | 56.11233 | 12.00493 | 18130 ft | 382 kts | 311° |
| 2026-04-22 18:56 | 56.13145 | 11.97173 | 18151 ft | 383 kts | 311° |
| 2026-04-22 18:56 | 56.15055 | 11.93852 | 18146 ft | 383 kts | 311° |
| 2026-04-22 18:57 | 56.16963 | 11.90530 | 18146 ft | 382 kts | 311° |
| 2026-04-22 18:57 | 56.18878 | 11.87190 | 18149 ft | 383 kts | 311° |
| 2026-04-22 18:57 | 56.20764 | 11.83895 | 18145 ft | 383 kts | 311° |
| 2026-04-22 18:57 | 56.22677 | 11.80547 | 18139 ft | 384 kts | 311° |
| 2026-04-22 18:58 | 56.24588 | 11.77201 | 18143 ft | 383 kts | 311° |
| 2026-04-22 18:58 | 56.26500 | 11.73846 | 18150 ft | 384 kts | 311° |
| 2026-04-22 18:58 | 56.28410 | 11.70491 | 18148 ft | 384 kts | 311° |
| 2026-04-22 18:58 | 56.30317 | 11.67136 | 18148 ft | 384 kts | 311° |
| 2026-04-22 18:59 | 56.32226 | 11.63773 | 18145 ft | 384 kts | 311° |
| 2026-04-22 18:59 | 56.34126 | 11.60421 | 18140 ft | 375 kts | 310° |
| 2026-04-22 18:59 | 56.35970 | 11.57159 | 17982 ft | 365 kts | 310° |
| 2026-04-22 18:59 | 56.37766 | 11.53978 | 17637 ft | 361 kts | 310° |
| 2026-04-22 19:00 | 56.38950 | 11.51881 | 17436 ft | 359 kts | 310° |
| 2026-04-22 19:00 | 56.41322 | 11.47667 | 16937 ft | 356 kts | 310° |
| 2026-04-22 19:00 | 56.43078 | 11.44549 | 16576 ft | 352 kts | 310° |
| 2026-04-22 19:00 | 56.44795 | 11.41495 | 16231 ft | 341 kts | 310° |
| 2026-04-22 19:01 | 56.46454 | 11.38537 | 15888 ft | 329 kts | 310° |
| 2026-04-22 19:01 | 56.48060 | 11.35671 | 15545 ft | 318 kts | 310° |
| 2026-04-22 19:01 | 56.49640 | 11.32846 | 15199 ft | 324 kts | 311° |
| 2026-04-22 19:01 | 56.51257 | 11.29956 | 14850 ft | 330 kts | 311° |
| 2026-04-22 19:02 | 56.52894 | 11.27026 | 14517 ft | 332 kts | 311° |
| 2026-04-22 19:02 | 56.54542 | 11.24070 | 14181 ft | 332 kts | 311° |
| 2026-04-22 19:02 | 56.56163 | 11.21160 | 13806 ft | 331 kts | 311° |
| 2026-04-22 19:02 | 56.57791 | 11.18232 | 13460 ft | 327 kts | 311° |
| 2026-04-22 19:03 | 56.59399 | 11.15339 | 13142 ft | 324 kts | 311° |
| 2026-04-22 19:03 | 56.61011 | 11.12432 | 13115 ft | 327 kts | 311° |
| 2026-04-22 19:03 | 56.62627 | 11.09516 | 13138 ft | 328 kts | 311° |
| 2026-04-22 19:03 | 56.64244 | 11.06594 | 13137 ft | 328 kts | 311° |
| 2026-04-22 19:04 | 56.65867 | 11.03662 | 13137 ft | 328 kts | 311° |
| 2026-04-22 19:04 | 56.67482 | 11.00734 | 13132 ft | 328 kts | 311° |
| 2026-04-22 19:04 | 56.69102 | 10.97795 | 13136 ft | 328 kts | 311° |
| 2026-04-22 19:04 | 56.70715 | 10.94864 | 13136 ft | 323 kts | 311° |
| 2026-04-22 19:05 | 56.72248 | 10.92076 | 13132 ft | 308 kts | 311° |
| 2026-04-22 19:05 | 56.73733 | 10.89373 | 13133 ft | 297 kts | 311° |
| 2026-04-22 19:05 | 56.75192 | 10.86709 | 13136 ft | 296 kts | 311° |
| 2026-04-22 19:05 | 56.76645 | 10.84057 | 13130 ft | 295 kts | 311° |
| 2026-04-22 19:06 | 56.78095 | 10.81409 | 13071 ft | 293 kts | 311° |
| 2026-04-22 19:06 | 56.79543 | 10.78760 | 12555 ft | 298 kts | 311° |
| 2026-04-22 19:06 | 56.81022 | 10.76051 | 11953 ft | 304 kts | 311° |
| 2026-04-22 19:07 | 56.84029 | 10.70539 | 10743 ft | 306 kts | 312° |
| 2026-04-22 19:07 | 56.85530 | 10.67780 | 10137 ft | 306 kts | 313° |
| 2026-04-22 19:07 | 56.87027 | 10.65026 | 9562 ft | 304 kts | 313° |
| 2026-04-22 19:07 | 56.88489 | 10.62334 | 9291 ft | 292 kts | 313° |
| 2026-04-22 19:08 | 56.89895 | 10.59739 | 8969 ft | 285 kts | 313° |
| 2026-04-22 19:08 | 56.91291 | 10.57157 | 8541 ft | 284 kts | 313° |
| 2026-04-22 19:08 | 56.92677 | 10.54596 | 8097 ft | 280 kts | 313° |
| 2026-04-22 19:08 | 56.94075 | 10.52052 | 7499 ft | 293 kts | 313° |
| 2026-04-22 19:09 | 56.95565 | 10.49319 | 7033 ft | 305 kts | 315° |
| 2026-04-22 19:09 | 56.97036 | 10.46601 | 6837 ft | 297 kts | 313° |
| 2026-04-22 19:09 | 56.97986 | 10.44809 | 6535 ft | 295 kts | 313° |
| 2026-04-22 19:09 | 56.99400 | 10.42145 | 6062 ft | 288 kts | 313° |
| 2026-04-22 19:10 | 57.01262 | 10.38655 | 5354 ft | 285 kts | 313° |
| 2026-04-22 19:10 | 57.02630 | 10.36137 | 4942 ft | 280 kts | 313° |
| 2026-04-22 19:10 | 57.03995 | 10.33575 | 4491 ft | 277 kts | 313° |
| 2026-04-22 19:10 | 57.04890 | 10.31898 | 4174 ft | 279 kts | 313° |
| 2026-04-22 19:11 | 57.06703 | 10.28515 | 3589 ft | 279 kts | 313° |
| 2026-04-22 19:11 | 57.08051 | 10.25990 | 3150 ft | 274 kts | 313° |
| 2026-04-22 19:11 | 57.09366 | 10.23506 | 2854 ft | 267 kts | 313° |
| 2026-04-22 19:11 | 57.10584 | 10.21148 | 2858 ft | 244 kts | 304° |
| 2026-04-22 19:12 | 57.11283 | 10.18458 | 2866 ft | 225 kts | 280° |
| 2026-04-22 19:12 | 57.11458 | 10.15767 | 2925 ft | 200 kts | 264° |
| 2026-04-22 19:12 | 57.11407 | 10.14108 | 2799 ft | 191 kts | 259° |
| 2026-04-22 19:12 | 57.11187 | 10.10993 | 2513 ft | 172 kts | 258° |
| 2026-04-22 19:13 | 57.11087 | 10.09565 | 2372 ft | 168 kts | 258° |
| 2026-04-22 19:13 | 57.10940 | 10.07469 | 2126 ft | 162 kts | 258° |
| 2026-04-22 19:13 | 57.10806 | 10.05431 | 1903 ft | 162 kts | 259° |
| 2026-04-22 19:13 | 57.10675 | 10.03409 | 1677 ft | 155 kts | 260° |
| 2026-04-22 19:14 | 57.10545 | 10.01467 | 1549 ft | 154 kts | 259° |
| 2026-04-22 19:14 | 57.10414 | 9.99455 | 1079 ft | 160 kts | 259° |
| 2026-04-22 19:14 | 57.10298 | 9.97515 | 1405 ft | 154 kts | 264° |
| 2026-04-22 19:14 | 57.10220 | 9.95465 | 1012 ft | 157 kts | 262° |
| 2026-04-22 19:15 | 57.10144 | 9.94144 | 803 ft | 155 kts | 258° |
| 2026-04-22 19:15 | 57.09913 | 9.91566 | 479 ft | 150 kts | 259° |
| 2026-04-22 19:15 | 57.09790 | 9.89681 | 250 ft | 148 kts | 261° |
| 2026-04-22 19:15 | 57.09663 | 9.87867 | 66 ft | 137 kts | 262° |
| 2026-04-22 19:16 | 57.09564 | 9.86281 | 21 ft | 108 kts | 264° |
| 2026-04-22 19:16 | 57.09513 | 9.85491 | 21 ft | 41 kts | 263° |
| 2026-04-22 19:16 | 57.09478 | 9.84972 | 23 ft | 31 kts | 263° |
| 2026-04-22 19:16 | 57.09454 | 9.84597 | 22 ft | 20 kts | 264° |
| 2026-04-22 19:17 | 57.09449 | 9.84518 | 21 ft | 4 kts | 264° |
| 2026-04-22 19:17 | 57.09446 | 9.84457 | 21 ft | 6 kts | 264° |
| 2026-04-22 19:17 | 57.09440 | 9.84373 | 21 ft | 7 kts | 260° |
| 2026-04-22 19:17 | 57.09435 | 9.84317 | 21 ft | 1 kts | 257° |
| 2026-04-22 19:18 | 57.09431 | 9.84301 | 21 ft | 2 kts | 233° |
| 2026-04-22 19:18 | 57.09419 | 9.84292 | 23 ft | 2 kts | 192° |
| 2026-04-22 19:18 | 57.09393 | 9.84303 | 21 ft | 7 kts | 154° |
| 2026-04-22 19:18 | 57.09345 | 9.84369 | 23 ft | 10 kts | 141° |
| 2026-04-22 19:19 | 57.09294 | 9.84446 | 21 ft | 9 kts | 137° |
| 2026-04-22 19:19 | 57.09263 | 9.84546 | 23 ft | 10 kts | 99° |
| 2026-04-22 19:19 | 57.09268 | 9.84702 | 23 ft | 15 kts | 83° |
| 2026-04-22 19:19 | 57.09283 | 9.84933 | 21 ft | 20 kts | 83° |
| 2026-04-22 19:20 | 57.09302 | 9.85237 | 22 ft | 28 kts | 83° |
| 2026-04-22 19:20 | 57.09327 | 9.85603 | 21 ft | 29 kts | 83° |
| 2026-04-22 19:20 | 57.09339 | 9.85815 | 21 ft | 12 kts | 84° |
| 2026-04-22 19:20 | 57.09324 | 9.85909 | 21 ft | 8 kts | 132° |
| 2026-04-22 19:21 | 57.09276 | 9.85981 | 23 ft | 10 kts | 142° |
| 2026-04-22 19:21 | 57.09216 | 9.86067 | 21 ft | 12 kts | 142° |
| 2026-04-22 19:21 | 57.09127 | 9.86190 | 21 ft | 19 kts | 142° |
| 2026-04-22 19:21 | 57.09001 | 9.86370 | 22 ft | 26 kts | 143° |
| 2026-04-22 19:22 | 57.08859 | 9.86569 | 22 ft | 20 kts | 141° |
| 2026-04-22 19:22 | 57.08773 | 9.86696 | 21 ft | 9 kts | 140° |
| 2026-04-22 19:22 | 57.08721 | 9.86774 | 21 ft | 11 kts | 141° |
| 2026-04-22 19:22 | 57.08676 | 9.86845 | 22 ft | 6 kts | 139° |
| 2026-04-22 19:23 | 57.08669 | 9.86887 | 21 ft | 3 kts | 69° |
| 2026-04-22 19:23 | 57.08685 | 9.86917 | 21 ft | 4 kts | 48° |
| 2026-04-22 19:23 | 57.08702 | 9.86959 | 21 ft | 0 kts | 54° |
| 2026-04-22 19:23 | 57.08706 | 9.86970 | 23 ft | 0 kts | 55° |
| 2026-04-22 19:24 | 57.08706 | 9.86971 | 21 ft | 0 kts | 55° |